createdAt,value
2022-12-16T00:01:50.170Z,70.49
2022-12-16T00:04:37.495Z,70.57
2022-12-16T00:07:23.464Z,70.11
2022-12-16T00:10:09.289Z,70.35
2022-12-16T00:12:55.096Z,70.30
2022-12-16T00:15:40.851Z,70.84
2022-12-16T00:18:26.691Z,70.25
2022-12-16T00:21:12.998Z,70.52
2022-12-16T00:23:58.959Z,70.35
2022-12-16T00:26:44.532Z,70.52
2022-12-16T00:29:30.326Z,70.93
2022-12-16T00:32:16.138Z,70.56
2022-12-16T00:35:01.759Z,70.68
2022-12-16T00:37:47.836Z,70.57
2022-12-16T00:40:33.419Z,70.23
2022-12-16T00:43:20.377Z,70.47
2022-12-16T00:46:06.659Z,70.92
2022-12-16T00:48:52.532Z,70.99
2022-12-16T00:51:38.307Z,70.59
2022-12-16T00:54:24.142Z,70.63
2022-12-16T00:57:09.634Z,70.70
2022-12-16T00:59:55.255Z,70.44
2022-12-16T01:02:42.090Z,70.65
2022-12-16T01:05:28.090Z,70.46
2022-12-16T01:08:13.742Z,70.60
2022-12-16T01:11:00.213Z,70.91
2022-12-16T01:13:46.935Z,70.91
2022-12-16T01:16:32.784Z,70.22
2022-12-16T01:19:19.710Z,70.76
2022-12-16T01:22:05.522Z,71.04
2022-12-16T01:24:51.263Z,71.02
2022-12-16T01:27:36.939Z,70.29
2022-12-16T01:30:23.074Z,70.76
2022-12-16T01:33:09.451Z,70.70
2022-12-16T01:36:07.027Z,70.55
2022-12-16T01:38:53.042Z,70.16
2022-12-16T01:41:39.129Z,70.86
2022-12-16T01:44:26.550Z,70.62
2022-12-16T01:47:22.476Z,70.66
2022-12-16T01:50:12.167Z,70.28
2022-12-16T01:52:59.884Z,70.13
2022-12-16T01:55:50.370Z,69.95
2022-12-16T01:58:37.856Z,70.15
2022-12-16T02:01:23.743Z,70.38
2022-12-16T02:04:09.904Z,70.12
2022-12-16T02:06:55.869Z,70.73
2022-12-16T02:09:41.800Z,69.94
2022-12-16T02:12:48.420Z,70.15
2022-12-16T02:16:25.988Z,70.15
2022-12-16T02:19:49.157Z,69.95
2022-12-16T02:22:47.803Z,69.99
2022-12-16T02:25:51.723Z,70.37
2022-12-16T02:29:21.119Z,70.67
2022-12-16T02:32:26.517Z,70.56
2022-12-16T02:35:25.450Z,70.63
2022-12-16T02:38:43.144Z,70.38
2022-12-16T02:41:47.483Z,70.65
2022-12-16T02:44:55.279Z,70.66
2022-12-16T02:47:41.400Z,69.98
2022-12-16T02:50:32.901Z,70.17
2022-12-16T02:53:20.607Z,69.85
2022-12-16T02:56:27.446Z,70.34
2022-12-16T02:59:13.269Z,70.45
2022-12-16T03:02:12.670Z,69.80
2022-12-16T03:05:04.594Z,70.35
2022-12-16T03:07:52.757Z,70.39
2022-12-16T03:10:45.647Z,69.89
2022-12-16T03:13:36.822Z,70.18
2022-12-16T03:16:26.953Z,70.30
2022-12-16T03:19:13.861Z,70.26
2022-12-16T03:22:29.475Z,70.42
2022-12-16T03:25:16.543Z,70.23
2022-12-16T03:28:08.351Z,70.50
2022-12-16T03:31:04.959Z,70.35
2022-12-16T03:33:57.748Z,70.10
2022-12-16T03:36:50.019Z,70.25
2022-12-16T03:39:47.072Z,69.94
2022-12-16T03:42:34.106Z,70.57
2022-12-16T03:45:24.886Z,70.18
2022-12-16T03:48:12.897Z,70.35
2022-12-16T03:50:59.054Z,70.08
2022-12-16T03:53:45.669Z,70.16
2022-12-16T03:56:31.311Z,70.18
2022-12-16T03:59:17.105Z,70.17
2022-12-16T04:02:03.414Z,70.31
2022-12-16T04:04:49.162Z,70.70
2022-12-16T04:07:34.859Z,70.22
2022-12-16T04:10:44.433Z,70.19
2022-12-16T04:13:49.867Z,70.55
2022-12-16T04:16:54.258Z,70.54
2022-12-16T04:19:59.366Z,70.32
2022-12-16T04:23:03.736Z,70.41
2022-12-16T04:25:49.870Z,70.31
2022-12-16T04:28:36.005Z,70.86
2022-12-16T04:31:21.839Z,70.83
2022-12-16T04:34:25.941Z,70.65
2022-12-16T04:37:31.331Z,70.82
2022-12-16T04:40:36.062Z,70.61
2022-12-16T04:43:40.756Z,70.86
2022-12-16T04:46:45.365Z,70.71
2022-12-16T04:49:49.875Z,70.50
2022-12-16T04:52:55.488Z,70.31
2022-12-16T04:56:04.125Z,70.11
2022-12-16T04:59:09.162Z,70.42
2022-12-16T05:02:13.768Z,70.40
2022-12-16T05:05:17.985Z,70.58
2022-12-16T05:08:22.406Z,70.35
2022-12-16T05:11:26.762Z,70.56
2022-12-16T05:14:31.281Z,70.54
2022-12-16T05:17:52.542Z,70.26
2022-12-16T05:20:56.865Z,70.39
2022-12-16T05:24:01.243Z,70.30
2022-12-16T05:27:05.787Z,70.33
2022-12-16T05:30:10.337Z,70.77
2022-12-16T05:33:14.979Z,70.24
2022-12-16T05:36:19.588Z,70.48
2022-12-16T05:39:24.264Z,70.66
2022-12-16T05:42:28.619Z,70.40
2022-12-16T05:45:33.261Z,70.52
2022-12-16T05:48:38.750Z,70.60
2022-12-16T05:51:44.310Z,70.27
2022-12-16T05:54:48.836Z,70.83
2022-12-16T05:57:53.451Z,70.29
2022-12-16T06:00:58.035Z,70.29
2022-12-16T06:04:02.649Z,70.29
2022-12-16T06:07:07.158Z,70.55
2022-12-16T06:10:11.688Z,70.74
2022-12-16T06:13:15.948Z,70.24
2022-12-16T06:16:20.536Z,70.55
2022-12-16T06:19:26.007Z,70.24
2022-12-16T06:22:30.507Z,70.42
2022-12-16T06:25:35.023Z,70.42
2022-12-16T06:28:44.392Z,70.80
2022-12-16T06:31:50.351Z,70.70
2022-12-16T06:34:54.668Z,70.38
2022-12-16T06:37:59.060Z,70.82
2022-12-16T06:41:04.529Z,70.77
2022-12-16T06:44:09.043Z,70.61
2022-12-16T06:47:13.528Z,70.71
2022-12-16T06:50:18.267Z,70.86
2022-12-16T06:53:23.069Z,70.63
2022-12-16T06:56:27.639Z,70.55
2022-12-16T06:59:33.205Z,70.25
2022-12-16T07:02:37.940Z,70.75
2022-12-16T07:05:42.152Z,70.69
2022-12-16T07:08:46.343Z,70.72
2022-12-16T07:11:50.932Z,71.04
2022-12-16T07:14:55.349Z,70.49
2022-12-16T07:17:59.767Z,70.40
2022-12-16T07:21:04.261Z,70.62
2022-12-16T07:24:09.008Z,70.60
2022-12-16T07:27:13.521Z,70.50
2022-12-16T07:30:18.159Z,70.07
2022-12-16T07:33:22.635Z,70.57
2022-12-16T07:36:27.610Z,70.19
2022-12-16T07:39:31.866Z,70.43
2022-12-16T07:42:36.288Z,70.48
2022-12-16T07:45:45.346Z,70.25
2022-12-16T07:48:51.828Z,70.07
2022-12-16T07:51:56.971Z,70.21
2022-12-16T07:55:04.146Z,70.30
2022-12-16T07:58:11.539Z,70.30
2022-12-16T08:01:16.231Z,70.12
2022-12-16T08:04:20.811Z,70.33
2022-12-16T08:07:25.413Z,70.22
2022-12-16T08:10:29.946Z,70.41
2022-12-16T08:13:35.812Z,70.40
2022-12-16T08:16:42.032Z,70.36
2022-12-16T08:19:46.814Z,70.34
2022-12-16T08:22:51.631Z,70.00
2022-12-16T08:25:56.940Z,69.58
2022-12-16T08:29:26.890Z,69.65
2022-12-16T08:32:25.669Z,69.48
2022-12-16T08:35:30.411Z,69.65
2022-12-16T08:38:35.010Z,69.52
2022-12-16T08:41:39.111Z,69.54
2022-12-16T08:44:43.312Z,69.63
2022-12-16T08:47:47.657Z,69.87
2022-12-16T08:50:52.046Z,69.61
2022-12-16T08:53:56.475Z,69.65
2022-12-16T08:57:02.109Z,69.76
2022-12-16T09:00:07.036Z,69.90
2022-12-16T09:03:15.852Z,69.82
2022-12-16T09:06:20.387Z,69.46
2022-12-16T09:09:24.733Z,69.31
2022-12-16T09:12:29.181Z,69.05
2022-12-16T09:15:33.624Z,68.67
2022-12-16T09:18:37.876Z,68.77
2022-12-16T09:21:42.369Z,69.15
2022-12-16T09:24:54.079Z,69.03
2022-12-16T09:28:01.242Z,69.53
2022-12-16T09:31:05.632Z,69.19
2022-12-16T09:34:10.029Z,68.72
2022-12-16T09:37:14.540Z,68.64
2022-12-16T09:40:20.064Z,68.49
2022-12-16T09:43:36.104Z,68.18
2022-12-16T09:47:08.387Z,67.76
2022-12-16T09:50:14.889Z,67.54
2022-12-16T09:53:22.577Z,66.92
2022-12-16T09:56:48.261Z,66.78
2022-12-16T09:59:57.280Z,66.72
2022-12-16T10:03:07.453Z,66.61
2022-12-16T10:06:38.636Z,66.33
2022-12-16T10:09:57.090Z,66.51
2022-12-16T10:13:35.370Z,66.48
2022-12-16T10:17:14.585Z,66.65
2022-12-16T10:20:48.687Z,66.97
2022-12-16T10:24:06.437Z,67.00
2022-12-16T10:27:32.156Z,67.35
2022-12-16T10:30:40.019Z,67.41
2022-12-16T10:33:47.729Z,67.71
2022-12-16T10:36:56.250Z,67.97
2022-12-16T10:40:08.905Z,67.61
2022-12-16T10:43:22.648Z,67.25
2022-12-16T10:46:40.995Z,67.15
2022-12-16T10:49:50.821Z,66.42
2022-12-16T10:53:37.271Z,65.66
2022-12-16T10:57:03.227Z,65.31
2022-12-16T11:00:07.369Z,65.37
2022-12-16T11:03:13.018Z,65.65
2022-12-16T11:06:19.757Z,65.29
2022-12-16T11:09:51.781Z,65.06
2022-12-16T11:12:57.290Z,64.85
2022-12-16T11:16:02.680Z,64.27
2022-12-16T11:19:10.436Z,63.51
2022-12-16T11:22:25.953Z,63.35
2022-12-16T11:25:39.551Z,62.82
2022-12-16T11:28:44.004Z,62.40
2022-12-16T11:31:48.183Z,61.38
2022-12-16T11:34:53.197Z,62.53
2022-12-16T11:38:00.419Z,62.73
2022-12-16T11:41:05.433Z,62.67
2022-12-16T11:44:12.582Z,62.72
2022-12-16T11:47:18.262Z,63.07
2022-12-16T11:50:34.353Z,62.78
2022-12-16T11:53:41.653Z,63.01
2022-12-16T11:56:52.644Z,63.11
2022-12-16T11:59:58.706Z,63.33
2022-12-16T12:03:29.618Z,63.40
2022-12-16T12:06:46.112Z,63.47
2022-12-16T12:09:57.408Z,63.84
2022-12-16T12:13:06.458Z,63.67
2022-12-16T12:16:28.164Z,63.51
2022-12-16T12:20:25.250Z,63.15
2022-12-16T12:23:30.001Z,63.45
2022-12-16T12:26:50.031Z,63.57
2022-12-16T12:30:16.007Z,63.76
2022-12-16T12:33:45.316Z,63.75
2022-12-16T12:36:58.436Z,63.81
2022-12-16T12:40:06.245Z,63.88
2022-12-16T12:43:14.045Z,63.94
2022-12-16T12:46:39.829Z,64.01
2022-12-16T12:49:53.608Z,64.16
2022-12-16T12:53:14.349Z,64.20
2022-12-16T12:56:28.161Z,64.05
2022-12-16T12:59:41.030Z,64.28
2022-12-16T13:02:47.753Z,64.40
2022-12-16T13:05:53.859Z,64.63
2022-12-16T13:09:07.414Z,64.93
2022-12-16T13:12:28.213Z,65.04
2022-12-16T13:16:06.660Z,64.89
2022-12-16T13:20:03.285Z,65.38
2022-12-16T13:23:08.158Z,65.26
2022-12-16T13:26:23.386Z,65.48
2022-12-16T13:29:39.132Z,65.73
2022-12-16T13:32:43.951Z,65.51
2022-12-16T13:35:49.710Z,65.41
2022-12-16T13:38:56.029Z,65.92
2022-12-16T13:42:00.873Z,65.87
2022-12-16T13:45:05.368Z,65.94
2022-12-16T13:48:09.927Z,66.63
2022-12-16T13:51:18.828Z,66.63
2022-12-16T13:54:26.331Z,66.30
2022-12-16T13:57:32.220Z,66.43
2022-12-16T14:00:39.400Z,66.51
2022-12-16T14:04:01.412Z,66.59
2022-12-16T14:07:06.206Z,66.64
2022-12-16T14:10:10.487Z,66.76
2022-12-16T14:13:21.243Z,66.41
2022-12-16T14:16:39.214Z,66.51
2022-12-16T14:19:52.875Z,66.55
2022-12-16T14:23:17.964Z,66.57
2022-12-16T14:26:33.020Z,66.87
2022-12-16T14:29:45.236Z,66.49
2022-12-16T14:32:52.218Z,66.61
2022-12-16T14:36:08.362Z,66.69
2022-12-16T14:39:13.343Z,66.87
2022-12-16T14:42:18.244Z,66.77
2022-12-16T14:45:34.513Z,67.08
2022-12-16T14:48:53.484Z,67.13
2022-12-16T14:52:06.243Z,67.32
2022-12-16T14:55:10.677Z,67.39
2022-12-16T14:58:33.548Z,67.60
2022-12-16T15:01:41.374Z,67.23
2022-12-16T15:04:46.171Z,67.43
2022-12-16T15:07:55.945Z,67.51
2022-12-16T15:11:00.655Z,68.23
2022-12-16T15:14:06.687Z,67.78
2022-12-16T15:17:12.007Z,67.74
2022-12-16T15:20:16.296Z,67.97
2022-12-16T15:23:20.921Z,67.69
2022-12-16T15:26:25.753Z,68.05
2022-12-16T15:29:54.610Z,68.02
2022-12-16T15:33:00.735Z,68.16
2022-12-16T15:36:06.054Z,68.10
2022-12-16T15:39:10.697Z,67.52
2022-12-16T15:42:15.405Z,67.75
2022-12-16T15:45:20.093Z,67.75
2022-12-16T15:48:43.212Z,68.22
2022-12-16T15:52:02.286Z,68.01
2022-12-16T15:55:13.563Z,68.09
2022-12-16T15:58:18.130Z,68.00
2022-12-16T16:01:24.093Z,68.05
2022-12-16T16:04:39.565Z,67.56
2022-12-16T16:07:45.741Z,67.76
2022-12-16T16:10:50.317Z,67.96
2022-12-16T16:13:57.989Z,68.14
2022-12-16T16:17:07.085Z,67.98
2022-12-16T16:20:11.681Z,68.00
2022-12-16T16:23:17.313Z,68.37
2022-12-16T16:26:21.898Z,67.88
2022-12-16T16:29:30.026Z,67.94
2022-12-16T16:32:34.545Z,68.38
2022-12-16T16:35:39.014Z,68.11
2022-12-16T16:38:43.538Z,68.15
2022-12-16T16:41:48.178Z,68.32
2022-12-16T16:44:52.783Z,68.20
2022-12-16T16:47:57.835Z,68.51
2022-12-16T16:51:03.372Z,68.28
2022-12-16T16:54:08.969Z,68.72
2022-12-16T16:57:13.511Z,68.62
2022-12-16T17:00:18.284Z,68.55
2022-12-16T17:03:23.084Z,68.68
2022-12-16T17:06:27.387Z,68.75
2022-12-16T17:09:31.732Z,68.49
2022-12-16T17:12:41.501Z,68.69
2022-12-16T17:15:51.782Z,68.73
2022-12-16T17:18:56.116Z,68.74
2022-12-16T17:22:01.998Z,68.74
2022-12-16T17:25:06.554Z,68.41
2022-12-16T17:28:11.339Z,68.66
2022-12-16T17:31:16.248Z,68.64
2022-12-16T17:34:21.761Z,68.50
2022-12-16T17:37:26.484Z,68.05
2022-12-16T17:40:31.097Z,68.29
2022-12-16T17:43:36.018Z,68.45
2022-12-16T17:46:42.868Z,68.63
2022-12-16T17:49:47.456Z,68.58
2022-12-16T17:52:52.165Z,68.04
2022-12-16T17:55:57.044Z,68.44
2022-12-16T17:59:02.010Z,68.26
2022-12-16T18:02:08.456Z,68.31
2022-12-16T18:05:13.115Z,68.40
2022-12-16T18:08:18.532Z,68.21
2022-12-16T18:11:23.074Z,68.44
2022-12-16T18:14:28.698Z,68.73
2022-12-16T18:17:33.918Z,68.46
2022-12-16T18:20:39.641Z,68.73
2022-12-16T18:23:48.402Z,68.64
2022-12-16T18:26:53.049Z,68.39
2022-12-16T18:29:57.716Z,68.71
2022-12-16T18:33:02.263Z,68.53
2022-12-16T18:36:06.641Z,68.59
2022-12-16T18:39:11.321Z,68.55
2022-12-16T18:42:16.045Z,68.18
2022-12-16T18:45:20.638Z,68.31
2022-12-16T18:48:26.274Z,67.98
2022-12-16T18:51:30.866Z,68.00
2022-12-16T18:54:35.371Z,68.36
2022-12-16T18:57:40.992Z,68.23
2022-12-16T19:00:45.545Z,68.18
2022-12-16T19:03:50.246Z,68.29
2022-12-16T19:06:54.739Z,68.29
2022-12-16T19:10:00.295Z,68.17
2022-12-16T19:13:04.862Z,68.18
2022-12-16T19:16:16.177Z,68.27
2022-12-16T19:19:22.821Z,68.38
2022-12-16T19:22:28.298Z,68.36
2022-12-16T19:25:35.001Z,68.37
2022-12-16T19:28:42.125Z,68.37
2022-12-16T19:31:47.388Z,68.50
2022-12-16T19:34:53.019Z,68.49
2022-12-16T19:38:02.057Z,68.56
2022-12-16T19:41:13.073Z,68.88
2022-12-16T19:44:17.450Z,68.97
2022-12-16T19:47:22.625Z,68.64
2022-12-16T19:50:27.495Z,68.67
2022-12-16T19:53:32.046Z,69.01
2022-12-16T19:56:37.295Z,68.88
2022-12-16T19:59:42.831Z,68.64
2022-12-16T20:02:48.620Z,68.92
2022-12-16T20:05:58.414Z,69.04
2022-12-16T20:09:02.877Z,69.01
2022-12-16T20:12:07.621Z,68.86
2022-12-16T20:15:12.176Z,69.02
2022-12-16T20:18:18.758Z,68.73
2022-12-16T20:21:35.497Z,68.93
2022-12-16T20:24:49.502Z,68.76
2022-12-16T20:28:07.213Z,68.67
2022-12-16T20:31:16.414Z,68.85
2022-12-16T20:34:20.690Z,68.60
2022-12-16T20:37:27.164Z,68.74
2022-12-16T20:40:32.203Z,68.52
2022-12-16T20:43:36.979Z,68.56
2022-12-16T20:46:41.656Z,68.58
2022-12-16T20:49:53.530Z,68.34
2022-12-16T20:53:02.710Z,68.37
2022-12-16T20:56:09.070Z,68.49
2022-12-16T20:59:15.887Z,68.66
2022-12-16T21:02:23.466Z,68.92
2022-12-16T21:05:29.065Z,68.43
2022-12-16T21:08:34.378Z,68.58
2022-12-16T21:11:39.011Z,68.28
2022-12-16T21:14:43.506Z,68.49
2022-12-16T21:17:48.224Z,68.45
2022-12-16T21:21:00.079Z,68.31
2022-12-16T21:24:05.159Z,68.41
2022-12-16T21:27:10.608Z,68.38
2022-12-16T21:30:15.117Z,68.67
2022-12-16T21:33:19.833Z,68.46
2022-12-16T21:36:38.609Z,68.42
2022-12-16T21:39:45.255Z,68.33
2022-12-16T21:42:56.424Z,68.35
2022-12-16T21:46:01.023Z,68.59
2022-12-16T21:49:08.183Z,68.20
2022-12-16T21:52:14.092Z,68.14
2022-12-16T21:55:19.246Z,68.15
2022-12-16T21:58:29.089Z,68.24
2022-12-16T22:01:33.714Z,68.23
2022-12-16T22:04:37.981Z,68.32
2022-12-16T22:07:42.643Z,68.50
2022-12-16T22:10:47.221Z,68.28
2022-12-16T22:13:51.955Z,68.26
2022-12-16T22:16:56.767Z,68.42
2022-12-16T22:20:01.463Z,68.48
2022-12-16T22:23:05.881Z,68.46
2022-12-16T22:26:18.340Z,68.29
2022-12-16T22:29:25.675Z,68.50
2022-12-16T22:32:29.765Z,68.38
2022-12-16T22:35:34.444Z,68.46
2022-12-16T22:38:39.061Z,68.46
2022-12-16T22:41:43.524Z,68.58
2022-12-16T22:44:48.024Z,68.18
2022-12-16T22:47:53.565Z,68.43
2022-12-16T22:50:59.734Z,68.18
2022-12-16T22:54:06.291Z,68.51
2022-12-16T22:57:10.927Z,68.47
2022-12-16T23:00:15.759Z,68.39
2022-12-16T23:03:20.592Z,68.35
2022-12-16T23:06:25.176Z,68.51
2022-12-16T23:09:29.785Z,68.55
2022-12-16T23:12:34.111Z,68.59
2022-12-16T23:15:38.417Z,68.58
2022-12-16T23:18:43.845Z,68.55
2022-12-16T23:21:48.335Z,68.63
2022-12-16T23:24:52.832Z,68.63
2022-12-16T23:27:58.401Z,68.72
2022-12-16T23:31:03.588Z,68.75
2022-12-16T23:34:07.939Z,68.83
2022-12-16T23:37:12.466Z,69.10
2022-12-16T23:40:17.650Z,68.76
2022-12-16T23:43:22.803Z,68.66
2022-12-16T23:46:27.889Z,68.86
2022-12-16T23:49:32.493Z,68.67
2022-12-16T23:52:37.251Z,68.67
2022-12-16T23:55:41.773Z,68.52
2022-12-16T23:58:48.617Z,68.73
